Dripping Springs' Hourly Summary for Monday, May 14, 2018
Hour Temp
(f)
RH
(%)
Solar Rad.
(MJ/m2)
Rainfall
(in)
Wind
(mph)
5/14/2018 12:00 AM 76 79 0 0 6.92
5/14/2018 1:00 AM 74 84 0 0 6.97
5/14/2018 2:00 AM 73 85 0 0 8.19
5/14/2018 3:00 AM 73 85 0 0 8.19
5/14/2018 4:00 AM 72 86 0 0 6.83
5/14/2018 5:00 AM 73 88 0 0 5.61
5/14/2018 6:00 AM 73 89 0.01 0 5.24
5/14/2018 7:00 AM 73 91 0.12 0 4.31
5/14/2018 8:00 AM 73 91 0.34 0 4.97
5/14/2018 9:00 AM 75 86 1.01 0 6.2
5/14/2018 10:00 AM 78 77 1.53 0 6.39
5/14/2018 11:00 AM 80 66 1.83 0 7.17
5/14/2018 12:00 PM 82 61 2.55 0 7.46
5/14/2018 1:00 PM 83 57 2.55 0 7.46
5/14/2018 2:00 PM 85 55 2.91 0 7.15
5/14/2018 3:00 PM 85 52 2.91 0 7.71
5/14/2018 4:00 PM 86 50 2.08 0 7.71
5/14/2018 5:00 PM 86 47 1.93 0 7.19
5/14/2018 6:00 PM 85 48 1.19 0 7.19
5/14/2018 7:00 PM 85 49 0.55 0 6.3
5/14/2018 8:00 PM 84 56 0.3 0 5.15
5/14/2018 9:00 PM 80 61 0.01 0 2.8
5/14/2018 10:00 PM 79 66 0 0 4.17
5/14/2018 11:00 PM 78 68 0 0 4.17
Data Summary 78 69 21.82 0.00 6.31